Tiempo atmosférico en la estación meteorológica de Daroca, Zaragoza (779 m.)



Fecha
DESCASC
Temp. máxima en grados centígrados (hora)
DESCASC
Temp. mínima en grados centígrados (hora)
DESCASC
Temp. media en grados centígrados
DESCASC
Racha de viento máxima en m/sg (hora)
DESCASC
Velocidad máxima media en intervalos de 10 minutos(hora)
DESCASC
Precipitaciones diarias en mm
DESCASC
Precipitaciones de 00:00 a 06:00 en mm
DESCASC
Precipitaciones de 06:00 a 12:00 en mm
DESCASC
Precipitaciones de 12:00 a 18:00 en mm
DESCASC
Precipitaciones de 18:00 a 24:00 en mm
DESCASC
18-08-2019 35.6 (16:10) 20.2 (05:00) 27.9 12.5 (18:20) 6.11 (18:20) 0 0 0 0 0
17-08-2019 36.7 (18:00) 17 (07:50) 26.9 9.17 (15:40) 4.72 (15:40) 0 0 0 0 0
16-08-2019 33.2 (16:30) 13.8 (07:10) 23.5 7.78 (16:00) 3.33 (16:00) 0 0 0 0 0
15-08-2019 30.4 (17:20) 15 (00:00) 22.7 9.72 (19:40) 4.17 (19:40) 0 0 0 0 0
14-08-2019 32 (18:10) 9.3 (00:00) 20.7 7.5 (20:10) 3.89 (20:10) 0 0 0 0 0
13-08-2019 27.2 (17:30) 11.7 (00:00) 19.5 8.61 (18:00) 4.17 (18:50) 0 0 0 0 0
12-08-2019 24.6 (15:50) 13.3 (00:00) 19 10.28 (20:50) 5 (19:10) 0 0 0 0 0
11-08-2019 29.8 (16:20) 17.7 (00:00) 23.8 8.89 (17:30) 4.44 (18:50) 0 0 0 0 0
10-08-2019 32.2 (15:50) 17 (00:00) 24.6 9.17 (16:20) 4.72 (17:10) 0 0 0 0 0
09-08-2019 34.5 (18:00) 17.1 (00:00) 25.8 11.67 (22:00) 5.56 (14:50) 0 0 0 0 0
08-08-2019 34.6 (17:00) 16.2 (00:00) 25.4 10.56 (18:50) 4.44 (15:30) 0 0 0 0 0
07-08-2019 29.1 (14:50) 19.1 (00:00) 24.1 8.61 (15:40) 4.72 (17:20) 0 0 0 0 0
06-08-2019 36.2 (18:10) 17.8 (00:00) 27 8.61 (15:20) 4.17 (13:40) 0 0 0 0 0
05-08-2019 34.8 (15:10) 18 (00:00) 26.4 9.44 (18:10) 4.44 (15:40) 0 0 0 0 0
04-08-2019 37 (17:10) 17.6 (00:00) 27.3 8.06 (16:00) 4.17 (16:00) 0 0 0 0 0
03-08-2019 34.1 (14:20) 14.9 (00:00) 24.5 10 (15:50) 4.72 (15:50) 0 0 0 0 0
02-08-2019 31.8 (16:30) 15.6 (00:00) 23.7 8.89 (16:00) 3.89 (16:40) 0 0 0 0 0
01-08-2019 32.2 (17:30) 18.3 (00:00) 25.3 7.5 (15:00) 3.61 (14:30) 0 0 0 0 0
31-07-2019 29 (17:30) 13 (00:00) 21 10.28 (19:30) 4.72 (16:40) 0 0 0 0 0
30-07-2019 25.6 (16:00) 13.6 (00:00) 19.6 9.17 (19:10) 4.17 (17:20) 0 0 0 0 0
29-07-2019 33.2 (18:00) 12.8 (00:00) 23 9.72 (16:40) 4.17 (15:50) 0 0 0 0 0
28-07-2019 28 (19:10) 10.1 (00:00) 19.1 7.22 (15:50) 3.61 (20:10) 0 0 0 0 0
27-07-2019 26 (15:10) 15.7 (00:00) 20.8 11.11 (18:40) 4.72 (18:40) 0.2 0 0.2 0 0
26-07-2019 30.3 (14:30) 17.6 (00:00) 23.9 9.72 (17:00) 5.56 (17:00) 11.6 0 0 11.6 0
25-07-2019 35.6 (13:50) 22.7 (00:00) 29.1 9.44 (19:30) 4.17 (18:40) 0 0 0 0 0
24-07-2019 37.3 (18:10) 18 (00:00) 27.6 18.33 (16:50) 8.06 (17:10) 0 0 0 0 0
23-07-2019 37.4 (15:40) 18.9 (00:00) 28.2 16.39 (17:50) 5.28 (17:50) 0 0 0 0 0
22-07-2019 37.1 (16:30) 20.1 (00:00) 28.6 8.61 (17:10) 2.78 (17:10) 0 0 0 0 0
21-07-2019 35 (15:30) 18.8 (00:00) 26.9 10.28 (15:30) 4.17 (16:50) 0 0 0 0 0

Gráficas

Temp. máximas Temp. mínimas Temp. medias Precipitaciones Rachas de viento máximas Velocidades máximas media en intervalos de 10 minutos

Datos horarios

Fecha y hora oficial Temperatura (ºC) Velocidad del viento (km/h) Dirección del viento Racha (km/h) Dirección de racha Precipitación (mm) Presión (hPa) Tendencia (hPa) Humedad (%)
2019-08-19 23:00:00 18.4 5 Este 18 Norte 0 -- -- 62
2019-08-19 22:00:00 19.3 6 Norte 21 Nordeste 0 -- -- 58
2019-08-19 21:00:00 20.6 5 Nordeste 22 Este 0 -- -- 54
2019-08-19 20:00:00 21.3 6 Nordeste 22 Nordeste 0 -- -- 52
2019-08-19 19:00:00 22.3 8 Nordeste 22 Este 0 -- -- 49
2019-08-19 18:00:00 22.5 11 Nordeste 36 Norte 0 -- -- 53
2019-08-19 17:00:00 24.9 13 Nordeste 35 Norte 0 -- -- 42
2019-08-19 16:00:00 24.3 16 Nordeste 39 Nordeste 0 -- -- 43
2019-08-19 15:00:00 24.3 13 Nordeste 32 Nordeste 0 -- -- 44
2019-08-19 14:00:00 25 13 Nordeste 30 Nordeste 0 -- -- 43
2019-08-19 13:00:00 24.3 11 Nordeste 27 Este 0 -- -- 46
2019-08-19 12:00:00 22.8 9 Nordeste 22 Norte 0 -- -- 50
2019-08-19 11:00:00 20.6 9 Nordeste 23 Este 0 -- -- 56
2019-08-19 10:00:00 19.4 7 Nordeste 16 Este 0 -- -- 61
2019-08-19 09:00:00 16.8 6 Nordeste 15 Este 0 -- -- 71
2019-08-19 08:00:00 16 3 Nordeste 10 Norte 0 -- -- 75
2019-08-19 07:00:00 15.9 2 Este 8 Norte 0 -- -- 77
2019-08-19 06:00:00 15.7 3 Este 12 Este 0 -- -- 78
2019-08-19 05:00:00 16.1 3 Este 10 Nordeste 0 -- -- 77
2019-08-19 04:00:00 16.7 2 Nordeste 16 Este 0 -- -- 76
2019-08-19 03:00:00 17.3 6 Nordeste 22 Este 0 -- -- 75
2019-08-19 02:00:00 18.3 7 Este 19 Este 0 -- -- 73
2019-08-19 01:00:00 19.3 6 Este 18 Este 0 -- -- 71
2019-08-19 00:00:00 20.6 7 Nordeste 24 Nordeste 0 -- -- 67
2019-08-18 23:00:00 22.3 12 Nordeste 26 Nordeste 0 -- -- 62
2019-08-18 22:00:00 28.9 2 Este 14 Sudoeste 0 -- -- 16
2019-08-18 21:00:00 31.3 5 Sudoeste 20 Oeste 0 -- -- 14
2019-08-18 20:00:00 33.7 11 Sudoeste 31 Sudoeste 0 -- -- 14
2019-08-18 19:00:00 34.8 12 Oeste 45 Sudoeste 0 -- -- 13
2019-08-18 18:00:00 35 19 Sudoeste 39 Oeste 0 -- -- 14
2019-08-18 17:00:00 34.8 21 Oeste 43 Oeste 0 -- -- 16
2019-08-18 16:00:00 35.4 18 Oeste 42 Sudoeste 0 -- -- 15
2019-08-18 15:00:00 34.9 15 Oeste 37 Sudoeste 0 -- -- 17
2019-08-18 14:00:00 34.3 17 Oeste 41 Sudoeste 0 -- -- 18
2019-08-18 13:00:00 33.3 20 Oeste 40 Sudoeste 0 -- -- 19
2019-08-18 12:00:00 31.4 5 Oeste 18 Oeste 0 -- -- 24
2019-08-18 11:00:00 29.7 2 Oeste 15 Oeste 0 -- -- 28
2019-08-18 10:00:00 26.2 4 Oeste 11 Sudoeste 0 -- -- 43
2019-08-18 09:00:00 23.2 5 Noroeste 13 Sudoeste 0 -- -- 52
2019-08-18 08:00:00 21.7 3 Oeste 10 Oeste 0 -- -- 56
2019-08-18 07:00:00 22.3 4 Oeste 10 Oeste 0 -- -- 55
2019-08-18 06:00:00 22 0 Calma 6 Noroeste 0 -- -- 56
2019-08-18 05:00:00 20.2 3 Este 8 Sudeste 0 -- -- 56
2019-08-18 04:00:00 21.4 3 Este 9 Este 0 -- -- 52
2019-08-18 03:00:00 23.8 2 Nordeste 11 Oeste 0 -- -- 45
2019-08-18 02:00:00 21.5 2 Sudoeste 8 Sudeste 0 -- -- 38
2019-08-18 01:00:00 21.4 3 Este 6 Norte 0 -- -- 34
2019-08-18 00:00:00 23.1 3 Nordeste 9 Este 0 -- -- 30
2019-08-17 23:00:00 24.5 3 Nordeste 9 Nordeste 0 -- -- 28
2019-08-17 22:00:00 28.1 4 Este 16 Oeste 0 -- -- 23
2019-08-17 21:00:00 33 6 Oeste 21 Sudoeste 0 -- -- 17
2019-08-17 20:00:00 35.3 11 Oeste 22 Oeste 0 -- -- 16
2019-08-17 19:00:00 36.5 10 Sudoeste 28 Sudoeste 0 -- -- 15
2019-08-17 18:00:00 36.7 6 Sudoeste 28 Sudoeste 0 -- -- 15
2019-08-17 17:00:00 36.1 13 Oeste 27 Oeste 0 -- -- 16
2019-08-17 16:00:00 35.8 10 Sudoeste 33 Sudoeste 0 -- -- 17
2019-08-17 15:00:00 34.9 7 Sudoeste 21 Noroeste 0 -- -- 20
2019-08-17 14:00:00 33.7 4 Noroeste 19 Sudoeste 0 -- -- 24
2019-08-17 13:00:00 31.5 4 Oeste 14 Oeste 0 -- -- 30
2019-08-17 12:00:00 29.3 6 Sudoeste 12 Oeste 0 -- -- 37
2019-08-17 11:00:00 26.1 4 Oeste 8 Oeste 0 -- -- 45
2019-08-17 10:00:00 22.6 0 Calma 6 Oeste 0 -- -- 63
2019-08-17 09:00:00 18.7 0 Calma 6 Oeste 0 -- -- 73
2019-08-17 08:00:00 17 2 Nordeste 6 Norte 0 -- -- 77
2019-08-17 07:00:00 17.8 0 Calma 9 Este 0 -- -- 76
2019-08-17 06:00:00 18.7 0 Calma 4 Nordeste 0 -- -- 74
2019-08-17 05:00:00 19.9 0 Calma 6 Norte 0 -- -- 71
2019-08-17 04:00:00 20.7 2 Este 5 Nordeste 0 -- -- 68
2019-08-17 03:00:00 20.8 0 Calma 5 Nordeste 0 -- -- 65
2019-08-17 02:00:00 20.7 0 Calma 7 Nordeste 0 -- -- 53
2019-08-17 01:00:00 21.7 0 Calma 7 Nordeste 0 -- -- 49
2019-08-17 00:00:00 22.8 2 Nordeste 10 Nordeste 0 -- -- 45
2019-08-16 23:00:00 25.1 6 Nordeste 15 Este 0 -- -- 41
2019-08-16 22:00:00 27 0 Calma 13 Este 0 -- -- 37
2019-08-16 21:00:00 29.1 6 Nordeste 24 Este 0 -- -- 33
2019-08-16 20:00:00 30.9 9 Nordeste 22 Nordeste 0 -- -- 30
2019-08-16 19:00:00 32.1 9 Nordeste 23 Nordeste 0 -- -- 28
2019-08-16 18:00:00 32.5 10 Nordeste 26 Este 0 -- -- 28
2019-08-16 17:00:00 32.7 8 Nordeste 26 Norte 0 -- -- 28
2019-08-16 16:00:00 32.9 12 Nordeste 28 Nordeste 0 -- -- 29
2019-08-16 15:00:00 32.2 10 Nordeste 24 Noroeste 0 -- -- 31
2019-08-16 14:00:00 31.2 7 Este 17 Este 0 -- -- 34
2019-08-16 13:00:00 29.7 8 Sudoeste 16 Oeste 0 -- -- 38
2019-08-16 12:00:00 28.3 3 Nordeste 10 Nordeste 0 -- -- 43
2019-08-16 11:00:00 25 4 Sudoeste 10 Sudeste 0 -- -- 49
2019-08-16 10:00:00 21.5 0 Calma 8 Oeste 0 -- -- 49
2019-08-16 09:00:00 16.5 3 Oeste 8 Oeste 0 -- -- 61
2019-08-16 08:00:00 14.2 0 Calma 5 Nordeste 0 -- -- 69
2019-08-16 07:00:00 13.9 3 Nordeste 7 Este 0 -- -- 69
2019-08-16 06:00:00 14.3 0 Calma 5 Nordeste 0 -- -- 68
2019-08-16 05:00:00 14.9 0 Calma 7 Norte 0 -- -- 67
2019-08-16 04:00:00 15.5 2 Nordeste 5 Nordeste 0 -- -- 66
2019-08-16 03:00:00 15.8 4 Nordeste 9 Este 0 -- -- 65
2019-08-16 02:00:00 16.8 3 Nordeste 8 Nordeste 0 -- -- 61
2019-08-16 01:00:00 18.3 2 Nordeste 7 Norte 0 -- -- 57
2019-08-16 00:00:00 19.3 0 Calma 9 Este 0 -- -- 54
2019-08-15 23:00:00 20.2 3 Nordeste 16 Norte 0 -- -- 52
2019-08-15 22:00:00 21.2 9 Nordeste 26 Nordeste 0 -- -- 49
2019-08-15 21:00:00 22.9 12 Nordeste 28 Nordeste 0 -- -- 45
2019-08-15 20:00:00 25.4 15 Nordeste 35 Este 0 -- -- 42
2019-08-15 19:00:00 27.7 14 Nordeste 32 Nordeste 0 -- -- 37
2019-08-15 18:00:00 29.5 12 Nordeste 23 Norte 0 -- -- 38
2019-08-15 17:00:00 29.7 9 Norte 30 Nordeste 0 -- -- 38
2019-08-15 16:00:00 28.2 14 Nordeste 28 Nordeste 0 -- -- 43
2019-08-15 15:00:00 28 13 Nordeste 27 Este 0 -- -- 43
2019-08-15 14:00:00 27.2 7 Nordeste 24 Nordeste 0 -- -- 43
2019-08-15 13:00:00 26 7 Nordeste 22 Norte 0 -- -- 45
2019-08-15 12:00:00 24.3 7 Nordeste 19 Nordeste 0 -- -- 51
2019-08-15 11:00:00 23.4 8 Nordeste 21 Este 0 -- -- 55
2019-08-15 10:00:00 21.2 7 Nordeste 16 Nordeste 0 -- -- 64
2019-08-15 09:00:00 17.6 2 Oeste 7 Noroeste 0 -- -- 74
2019-08-15 08:00:00 15.3 0 Calma 6 Este 0 -- -- 80
2019-08-15 07:00:00 15.3 2 Este 6 Nordeste 0 -- -- 79
2019-08-15 06:00:00 16.5 0 Calma 4 Nordeste 0 -- -- 75
2019-08-15 05:00:00 17.7 3 Noroeste 9 Este 0 -- -- 73
2019-08-15 04:00:00 18.3 3 Este 13 Este 0 -- -- 70
2019-08-15 03:00:00 18.9 4 Nordeste 12 Nordeste 0 -- -- 65
2019-08-15 02:00:00 19.3 2 Nordeste 8 Nordeste 0 -- -- 55
2019-08-15 01:00:00 20.3 4 Nordeste 14 Nordeste 0 -- -- 51
2019-08-15 00:00:00 21.8 2 Nordeste 10 Norte 0 -- -- 47
2019-08-14 23:00:00 23 3 Norte 14 Este 0 -- -- 42
2019-08-14 22:00:00 24.4 0 Calma 21 Norte 0 -- -- 33
2019-08-14 21:00:00 26.3 9 Nordeste 27 Nordeste 0 -- -- 29
2019-08-14 20:00:00 29 11 Nordeste 26 Nordeste 0 -- -- 25
2019-08-14 19:00:00 31.9 6 Oeste 22 Sudoeste 0 -- -- 19
2019-08-14 18:00:00 31.9 4 Noroeste 24 Noroeste 0 -- -- 20
2019-08-14 17:00:00 31.2 6 Oeste 24 Sudoeste 0 -- -- 20
2019-08-14 16:00:00 30.5 8 Oeste 23 Sudoeste 0 -- -- 21
2019-08-14 15:00:00 28.8 10 Sudoeste 23 Oeste 0 -- -- 22
2019-08-14 14:00:00 27.3 9 Sudoeste 21 Oeste 0 -- -- 22
2019-08-14 13:00:00 25.9 10 Sudoeste 25 Oeste 0 -- -- 22
2019-08-14 12:00:00 24.4 7 Sudoeste 14 Sudoeste 0 -- -- 33
2019-08-14 11:00:00 20.7 2 Norte 10 Sudoeste 0 -- -- 42
2019-08-14 10:00:00 17.2 3 Sudoeste 9 Sudoeste 0 -- -- 53
2019-08-14 09:00:00 12.2 0 Calma 4 Este 0 -- -- 70
2019-08-14 08:00:00 9.5 0 Calma 6 Este 0 -- -- 76
2019-08-14 07:00:00 9.5 0 Calma 5 Nordeste 0 -- -- 75
2019-08-14 06:00:00 10.4 3 Nordeste 6 Nordeste 0 -- -- 72
2019-08-14 05:00:00 10.6 0 Calma 5 Nordeste 0 -- -- 73
2019-08-14 04:00:00 11.2 2 Nordeste 6 Nordeste 0 -- -- 70
2019-08-14 03:00:00 12.2 3 Este 7 Nordeste 0 -- -- 68
2019-08-14 02:00:00 13.5 0 Calma 7 Nordeste 0 -- -- 64
2019-08-14 01:00:00 15.2 0 Calma 6 Nordeste 0 -- -- 59
2019-08-14 00:00:00 16.1 3 Nordeste 6 Nordeste 0 -- -- 55
2019-08-13 23:00:00 17.6 0 Calma 12 Nordeste 0 -- -- 49
2019-08-13 22:00:00 18.9 5 Norte 20 Este 0 -- -- 45
2019-08-13 21:00:00 20.8 10 Nordeste 25 Este 0 -- -- 41
2019-08-13 20:00:00 23.2 11 Nordeste 28 Nordeste 0 -- -- 34
2019-08-13 19:00:00 24.8 14 Nordeste 30 Este 0 -- -- 30
2019-08-13 18:00:00 25.7 13 Nordeste 31 Nordeste 0 -- -- 30
2019-08-13 17:00:00 26.6 7 Norte 27 Norte 0 -- -- 24
2019-08-13 16:00:00 26.1 6 Noroeste 27 Oeste 0 -- -- 26
2019-08-13 15:00:00 24.5 5 Norte 23 Sudoeste 0 -- -- 32
2019-08-13 14:00:00 23.5 12 Oeste 24 Sudoeste 0 -- -- 36
2019-08-13 13:00:00 21.5 4 Este 12 Nordeste 0 -- -- 39
2019-08-13 12:00:00 18.8 3 Noroeste 13 Oeste 0 -- -- 45
2019-08-13 11:00:00 17.1 3 Sudoeste 10 Norte 0 -- -- 48
2019-08-13 10:00:00 15.7 0 Calma 6 Nordeste 0 -- -- 52
2019-08-13 09:00:00 13.7 0 Calma 6 Este 0 -- -- 59
2019-08-13 08:00:00 12 3 Este 6 Nordeste 0 -- -- 66
2019-08-13 07:00:00 12 0 Calma 5 Nordeste 0 -- -- 67
2019-08-13 06:00:00 12.5 0 Calma 5 Norte 0 -- -- 66
2019-08-13 05:00:00 12.6 0 Calma 5 Sudeste 0 -- -- 66
2019-08-13 04:00:00 12.2 2 Nordeste 6 Norte 0 -- -- 67
2019-08-13 03:00:00 11.8 3 Nordeste 8 Nordeste 0 -- -- 68
2019-08-13 02:00:00 12.5 0 Calma 5 Nordeste 0 -- -- 65
2019-08-13 01:00:00 13.8 0 Calma 12 Norte 0 -- -- 62
2019-08-13 00:00:00 15 4 Nordeste 12 Nordeste 0 -- -- 59
2019-08-12 23:00:00 15.9 4 Nordeste 19 Norte 0 -- -- 54
2019-08-12 22:00:00 16.9 8 Norte 35 Norte 0 -- -- 51
2019-08-12 21:00:00 18.4 15 Nordeste 37 Nordeste 0 -- -- 46
2019-08-12 20:00:00 21 14 Nordeste 35 Nordeste 0 -- -- 38
2019-08-12 19:00:00 22.7 13 Nordeste 33 Nordeste 0 -- -- 32
2019-08-12 18:00:00 23.5 14 Nordeste 35 Nordeste 0 -- -- 32
2019-08-12 17:00:00 24.2 12 Nordeste 30 Norte 0 -- -- 31
2019-08-12 16:00:00 24.5 8 Nordeste 25 Noroeste 0 -- -- 31
2019-08-12 15:00:00 24.1 9 Nordeste 25 Este 0 -- -- 32
2019-08-12 14:00:00 23 8 Nordeste 24 Nordeste 0 -- -- 36
2019-08-12 13:00:00 22.4 8 Norte 21 Norte 0 -- -- 39
2019-08-12 12:00:00 20.5 6 Sudoeste 17 Sudoeste 0 -- -- 48
2019-08-12 11:00:00 18.4 6 Oeste 14 Sudoeste 0 -- -- 57
2019-08-12 10:00:00 17.5 5 Sudoeste 9 Sudoeste 0 -- -- 59
2019-08-12 09:00:00 14.6 4 Oeste 7 Oeste 0 -- -- 70
2019-08-12 08:00:00 13.4 0 Calma 4 Nordeste 0 -- -- 73
2019-08-12 07:00:00 13.7 0 Calma 6 Sudeste 0 -- -- 73
2019-08-12 06:00:00 14.6 0 Calma 8 Norte 0 -- -- 71
2019-08-12 05:00:00 15.3 3 Nordeste 9 Norte 0 -- -- 69
2019-08-12 04:00:00 16 0 Calma 6 Norte 0 -- -- 66
2019-08-12 03:00:00 16.6 3 Norte 13 Norte 0 -- -- 64
2019-08-12 02:00:00 16.8 7 Nordeste 12 Este 0 -- -- 64
2019-08-12 01:00:00 17.9 4 Nordeste 14 Este 0 -- -- 61
2019-08-12 00:00:00 19 6 Norte 12 Noroeste 0 -- -- 57
2019-08-11 23:00:00 20.2 3 Norte 21 Nordeste 0 -- -- 54
2019-08-11 22:00:00 21.4 8 Nordeste 25 Nordeste 0 -- -- 50
2019-08-11 21:00:00 23.3 11 Nordeste 27 Nordeste 0 -- -- 45
2019-08-11 20:00:00 25.6 11 Nordeste 28 Nordeste 0 -- -- 40
2019-08-11 19:00:00 27.5 14 Nordeste 29 Nordeste 0 -- -- 37
2019-08-11 18:00:00 28.2 13 Nordeste 32 Norte 0 -- -- 36
2019-08-11 17:00:00 29.3 9 Nordeste 22 Norte 0 -- -- 34
2019-08-11 16:00:00 29.2 6 Nordeste 27 Nordeste 0 -- -- 35
2019-08-11 15:00:00 27.9 10 Nordeste 28 Norte 0 -- -- 39
2019-08-11 14:00:00 27.5 9 Nordeste 28 Nordeste 0 -- -- 40
2019-08-11 13:00:00 26.6 7 Nordeste 18 Nordeste 0 -- -- 42
2019-08-11 12:00:00 25 4 Este 15 Norte 0 -- -- 47
2019-08-11 11:00:00 23 4 Norte 13 Norte 0 -- -- 54
2019-08-11 10:00:00 20.3 5 Nordeste 20 Este 0 -- -- 62
2019-08-11 09:00:00 19.1 5 Norte 22 Oeste 0 -- -- 64
2019-08-11 08:00:00 18.2 3 Nordeste 8 Oeste 0 -- -- 68
2019-08-11 07:00:00 17.8 4 Este 10 Este 0 -- -- 69
2019-08-11 06:00:00 17.9 4 Este 12 Este 0 -- -- 68
2019-08-11 05:00:00 18.5 5 Este 18 Nordeste 0 -- -- 66
2019-08-11 04:00:00 19 5 Nordeste 17 Este 0 -- -- 64
2019-08-11 03:00:00 20 4 Nordeste 15 Nordeste 0 -- -- 60
2019-08-11 02:00:00 21.2 5 Este 18 Este 0 -- -- 56
2019-08-11 01:00:00 22.5 6 Nordeste 15 Este 0 -- -- 52
2019-08-11 00:00:00 22.9 0 Calma 9 Nordeste 0 -- -- 47
2019-08-10 23:00:00 23.9 6 Nordeste 12 Nordeste 0 -- -- 45
2019-08-10 22:00:00 25.3 4 Norte 14 Este 0 -- -- 43
2019-08-10 21:00:00 26.7 8 Nordeste 33 Este 0 -- -- 40
2019-08-10 20:00:00 29.4 12 Nordeste 30 Nordeste 0 -- -- 36
2019-08-10 19:00:00 29.7 13 Nordeste 30 Nordeste 0 -- -- 35
2019-08-10 18:00:00 30.2 13 Nordeste 32 Norte 0 -- -- 33
2019-08-10 17:00:00 30.6 16 Nordeste 33 Nordeste 0 -- -- 33
2019-08-10 16:00:00 32.2 10 Nordeste 22 Nordeste 0 -- -- 31
2019-08-10 15:00:00 31.2 11 Nordeste 20 Nordeste 0 -- -- 33
2019-08-10 14:00:00 28.9 3 Este 19 Nordeste 0 -- -- 36
2019-08-10 13:00:00 27.1 5 Este 14 Este 0 -- -- 42
2019-08-10 12:00:00 26 2 Nordeste 13 Norte 0 -- -- 45
2019-08-10 11:00:00 23.2 5 Sudoeste 12 Oeste 0 -- -- 52
2019-08-10 10:00:00 20.6 2 Oeste 8 Sudoeste 0 -- -- 61
2019-08-10 09:00:00 18.6 2 Sudeste 6 Este 0 -- -- 69
2019-08-10 08:00:00 17 3 Noroeste 9 Noroeste 0 -- -- 72
2019-08-10 07:00:00 17.2 4 Nordeste 7 Nordeste 0 -- -- 72
2019-08-10 06:00:00 18.3 0 Calma 9 Oeste 0 -- -- 68
2019-08-10 05:00:00 18.5 4 Nordeste 7 Norte 0 -- -- 65
2019-08-10 04:00:00 19.6 2 Nordeste 15 Oeste 0 -- -- 62
2019-08-10 03:00:00 20.1 3 Sudeste 9 Sur 0 -- -- 59
2019-08-10 02:00:00 21.4 5 Oeste 16 Oeste 0 -- -- 56
2019-08-10 01:00:00 21.7 8 Sudoeste 14 Sudoeste 0 -- -- 53
2019-08-10 00:00:00 22.5 7 Sudoeste 22 Oeste 0 -- -- 51
2019-08-09 23:00:00 23.4 12 Oeste 32 Sudoeste 0 -- -- 52
2019-08-09 22:00:00 26.6 15 Oeste 42 Oeste 0 -- -- 51
2019-08-09 21:00:00 30.7 13 Oeste 35 Oeste 0 -- -- 34
2019-08-09 20:00:00 31.7 16 Sudoeste 36 Sudoeste 0 -- -- 32
2019-08-09 19:00:00 33.7 16 Oeste 39 Sudoeste 0 -- -- 28
2019-08-09 18:00:00 34.5 15 Oeste 35 Oeste 0 -- -- 27
2019-08-09 17:00:00 34.4 17 Oeste 35 Sudoeste 0 -- -- 27
2019-08-09 16:00:00 33.6 18 Oeste 37 Sudoeste 0 -- -- 28
2019-08-09 15:00:00 33 17 Oeste 41 Sudoeste 0 -- -- 28
2019-08-09 14:00:00 32 17 Oeste 40 Sudoeste 0 -- -- 29
2019-08-09 13:00:00 31.3 15 Oeste 35 Sudoeste 0 -- -- 29
2019-08-09 12:00:00 30.2 14 Oeste 31 Sudoeste 0 -- -- 31
2019-08-09 11:00:00 28.5 13 Sudoeste 23 Oeste 0 -- -- 36
2019-08-09 10:00:00 26.5 12 Sudoeste 25 Oeste 0 -- -- 42
2019-08-09 09:00:00 21.6 5 Sudoeste 10 Este 0 -- -- 53
2019-08-09 08:00:00 17.7 3 Nordeste 9 Este 0 -- -- 63
2019-08-09 07:00:00 17.1 2 Este 6 Este 0 -- -- 63
2019-08-09 06:00:00 17.8 2 Este 7 Este 0 -- -- 60
2019-08-09 05:00:00 19.6 2 Este 9 Nordeste 0 -- -- 54
2019-08-09 04:00:00 19.6 3 Este 7 Norte 0 -- -- 54
2019-08-09 03:00:00 20.7 3 Nordeste 9 Sur 0 -- -- 51
2019-08-09 02:00:00 21.8 5 Nordeste 12 Sur 0 -- -- 48
2019-08-09 01:00:00 22.6 4 Nordeste 7 Este 0 -- -- 46
2019-08-09 00:00:00 24.1 3 Nordeste 7 Este 0 -- -- 43
2019-08-08 23:00:00 26.9 4 Nordeste 10 Sudoeste 0 -- -- 37
2019-08-08 22:00:00 29.8 6 Sudoeste 20 Oeste 0 -- -- 32
2019-08-08 21:00:00 31.3 12 Oeste 27 Sudoeste 0 -- -- 31
2019-08-08 20:00:00 33 13 Oeste 27 Oeste 0 -- -- 29
2019-08-08 19:00:00 34 8 Oeste 38 Oeste 0 -- -- 27
2019-08-08 18:00:00 34.1 11 Oeste 28 Sudoeste 0 -- -- 26
2019-08-08 17:00:00 34.6 14 Oeste 36 Oeste 0 -- -- 26
2019-08-08 16:00:00 33.1 14 Oeste 30 Sudoeste 0 -- -- 29
2019-08-08 15:00:00 32.6 12 Oeste 26 Sudoeste 0 -- -- 29
2019-08-08 14:00:00 31.1 9 Oeste 22 Sudoeste 0 -- -- 32
2019-08-08 13:00:00 29.7 12 Oeste 23 Oeste 0 -- -- 33
2019-08-08 12:00:00 27.8 5 Oeste 13 Oeste 0 -- -- 36
2019-08-08 11:00:00 25.5 5 Noroeste 10 Oeste 0 -- -- 42
2019-08-08 10:00:00 23.6 3 Sudoeste 8 Sudoeste 0 -- -- 47
2019-08-08 09:00:00 19.1 2 Este 7 Nordeste 0 -- -- 62
2019-08-08 08:00:00 16.5 0 Calma 6 Nordeste 0 -- -- 69
2019-08-08 07:00:00 16.6 0 Calma 6 Nordeste 0 -- -- 68
2019-08-08 06:00:00 17.5 0 Calma 8 Este 0 -- -- 64
2019-08-08 05:00:00 18 3 Este 12 Este 0 -- -- 62
2019-08-08 04:00:00 18.7 3 Este 8 Este 0 -- -- 59
2019-08-08 03:00:00 18.9 3 Este 7 Este 0 -- -- 58
2019-08-08 02:00:00 19.5 2 Este 7 Nordeste 0 -- -- 56
2019-08-08 01:00:00 21 2 Este 7 Norte 0 -- -- 51
2019-08-08 00:00:00 22.7 2 Nordeste 5 Sudeste 0 -- -- 47
2019-08-07 23:00:00 24 0 Calma 6 Nordeste 0 -- -- 44
2019-08-07 22:00:00 25.5 0 Calma 8 Noroeste 0 -- -- 40
2019-08-07 21:00:00 27.1 5 Noroeste 22 Oeste 0 -- -- 34
2019-08-07 20:00:00 27.6 4 Oeste 19 Sudoeste 0 -- -- 31
2019-08-07 19:00:00 27.8 3 Sudoeste 16 Oeste 0 -- -- 35
2019-08-07 18:00:00 28.4 9 Oeste 29 Sudoeste 0 -- -- 34
2019-08-07 17:00:00 29 10 Oeste 28 Sudoeste 0 -- -- 31
2019-08-07 16:00:00 28.6 12 Oeste 31 Sudoeste 0 -- -- 31
2019-08-07 15:00:00 29 10 Oeste 24 Sudoeste 0 -- -- 30
2019-08-07 14:00:00 28.2 4 Oeste 9 Oeste 0 -- -- 32
2019-08-07 13:00:00 28 3 Noroeste 14 Oeste 0 -- -- 34
2019-08-07 12:00:00 27.6 6 Oeste 14 Oeste 0 -- -- 34
2019-08-07 11:00:00 26.5 7 Oeste 17 Oeste 0 -- -- 37
2019-08-07 10:00:00 24.6 2 Sudoeste 8 Oeste 0 -- -- 46
2019-08-07 09:00:00 20.6 3 Oeste 6 Nordeste 0 -- -- 59
2019-08-07 08:00:00 19.1 0 Calma 8 Nordeste 0 -- -- 65
2019-08-07 07:00:00 19.4 2 Nordeste 6 Sudeste 0 -- -- 67
2019-08-07 06:00:00 20.1 2 Nordeste 11 Este 0 -- -- 67
2019-08-07 05:00:00 20.5 6 Nordeste 20 Norte 0 -- -- 66
2019-08-07 04:00:00 21.6 7 Nordeste 15 Norte 0 -- -- 62
2019-08-07 03:00:00 22.5 6 Nordeste 19 Norte 0 -- -- 63
2019-08-07 02:00:00 23.1 6 Nordeste 13 Nordeste 0 -- -- 52
2019-08-07 01:00:00 21.9 4 Este 9 Este 0 -- -- 34
2019-08-07 00:00:00 23.3 3 Este 9 Nordeste 0 -- -- 38
2019-08-06 23:00:00 25.3 3 Nordeste 10 Nordeste 0 -- -- 31
2019-08-06 22:00:00 28.1 3 Este 12 Este 0 -- -- 22
2019-08-06 21:00:00 31.9 4 Oeste 17 Sudoeste 0 -- -- 16
2019-08-06 20:00:00 34.5 8 Oeste 26 Oeste 0 -- -- 13
2019-08-06 19:00:00 35.5 10 Oeste 27 Oeste 0 -- -- 13
2019-08-06 18:00:00 36.1 10 Oeste 25 Sudoeste 0 -- -- 13
2019-08-06 17:00:00 35.7 12 Oeste 27 Oeste 0 -- -- 14
2019-08-06 16:00:00 35.3 10 Oeste 31 Sudoeste 0 -- -- 16
2019-08-06 15:00:00 34.6 14 Oeste 28 Sudoeste 0 -- -- 16
2019-08-06 14:00:00 34 9 Oeste 30 Sudoeste 0 -- -- 18
2019-08-06 13:00:00 32.4 4 Nordeste 14 Sudoeste 0 -- -- 23
2019-08-06 12:00:00 30.4 5 Sudoeste 18 Noroeste 0 -- -- 27
2019-08-06 11:00:00 28.3 2 Sudeste 9 Sur 0 -- -- 32
2019-08-06 10:00:00 23.5 3 Oeste 8 Noroeste 0 -- -- 60
2019-08-06 09:00:00 19.9 3 Oeste 7 Sudoeste 0 -- -- 69
2019-08-06 08:00:00 17.9 0 Calma 6 Nordeste 0 -- -- 74
2019-08-06 07:00:00 18.8 0 Calma 6 Sudeste 0 -- -- 71
2019-08-06 06:00:00 19.8 2 Este 10 Este 0 -- -- 68
2019-08-06 05:00:00 20.7 4 Nordeste 8 Nordeste 0 -- -- 66
2019-08-06 04:00:00 21.3 4 Este 7 Nordeste 0 -- -- 62
2019-08-06 03:00:00 21.9 2 Nordeste 10 Este 0 -- -- 58
2019-08-06 02:00:00 20.8 4 Nordeste 9 Este 0 -- -- 59
2019-08-06 01:00:00 22.2 3 Nordeste 7 Nordeste 0 -- -- 54
2019-08-06 00:00:00 24.6 4 Nordeste 9 Nordeste 0 -- -- 48
2019-08-05 23:00:00 27.1 5 Nordeste 11 Nordeste 0 -- -- 42
2019-08-05 22:00:00 29.3 2 Nordeste 15 Nordeste 0 -- -- 36
2019-08-05 21:00:00 31.2 9 Nordeste 26 Nordeste 0 -- -- 32
2019-08-05 20:00:00 33 10 Nordeste 27 Nordeste 0 -- -- 27
2019-08-05 19:00:00 33.7 12 Nordeste 34 Norte -- -- -- 25
2019-08-05 18:00:00 33.9 14 Nordeste 28 Nordeste 0 -- -- 27
2019-08-05 17:00:00 34.2 13 Nordeste 31 Este 0 -- -- 28
2019-08-05 16:00:00 34.5 12 Nordeste 32 Norte 0 -- -- 29
2019-08-05 15:00:00 34.7 8 Nordeste 28 Este 0 -- -- 27
2019-08-05 14:00:00 33.5 7 Nordeste 24 Nordeste 0 -- -- 27
2019-08-05 13:00:00 32.3 8 Nordeste 18 Norte 0 -- -- 32
2019-08-05 12:00:00 29.6 4 Sur 9 Sudoeste 0 -- -- 40
2019-08-05 11:00:00 26.7 3 Oeste 8 Norte 0 -- -- 49
2019-08-05 10:00:00 24.5 3 Nordeste 7 Nordeste 0 -- -- 55
2019-08-05 09:00:00 19.6 0 Calma 6 Sudoeste 0 -- -- 70
2019-08-05 08:00:00 18.3 0 Calma 4 Nordeste 0 -- -- 77
2019-08-05 07:00:00 18.4 0 Calma 5 Sudeste 0 -- -- 76
2019-08-05 06:00:00 19.1 2 Este 12 Nordeste 0 -- -- 74
2019-08-05 05:00:00 20.1 5 Nordeste 13 Nordeste 0 -- -- 71
2019-08-05 04:00:00 21 2 Sudeste 21 Norte 0 -- -- 68
2019-08-05 03:00:00 22.3 5 Nordeste 15 Nordeste 0 -- -- 63
2019-08-05 02:00:00 24 5 Este 12 Nordeste 0 -- -- 58
2019-08-05 01:00:00 24.4 2 Norte 11 Este 0 -- -- 50
2019-08-05 00:00:00 25.3 0 Calma 5 Norte 0 -- -- 48
2019-08-04 23:00:00 27.1 0 Calma 7 Este 0 -- -- 43
2019-08-04 22:00:00 29 5 Nordeste 15 Nordeste 0 -- -- 34
2019-08-04 21:00:00 31.6 7 Nordeste 25 Este 0 -- -- 30
2019-08-04 20:00:00 33.7 7 Este 22 Sudeste 0 -- -- 29
2019-08-04 19:00:00 34.8 10 Este 25 Sudeste 0 -- -- 27
2019-08-04 18:00:00 35.8 8 Nordeste 26 Oeste 0 -- -- 27
2019-08-04 17:00:00 36.8 9 Oeste 25 Sudoeste 0 -- -- 15
2019-08-04 16:00:00 36 15 Oeste 29 Oeste 0 -- -- 16
2019-08-04 15:00:00 35 5 Sudoeste 19 Sudoeste 0 -- -- 21
2019-08-04 14:00:00 34.5 4 Sudeste 24 Noroeste 0 -- -- 22
2019-08-04 13:00:00 32.8 0 Calma 9 Norte 0 -- -- 25
2019-08-04 12:00:00 29.9 4 Sudoeste 13 Oeste 0 -- -- 35
2019-08-04 11:00:00 28.6 0 Calma 8 Noroeste 0 -- -- 41
2019-08-04 10:00:00 24.5 3 Noroeste 6 Oeste 0 -- -- 56
2019-08-04 09:00:00 20.2 0 Calma 2 Nordeste 0 -- -- 68
2019-08-04 08:00:00 17.9 0 Calma 6 Este 0 -- -- 75
2019-08-04 07:00:00 18.1 2 Nordeste 8 Este 0 -- -- 73
2019-08-04 06:00:00 19.7 3 Nordeste 11 Nordeste 0 -- -- 68
2019-08-04 05:00:00 22.2 3 Nordeste 13 Sudeste 0 -- -- 60
2019-08-04 04:00:00 21.6 3 Sudeste 12 Norte 0 -- -- 62
2019-08-04 03:00:00 20 0 Calma 6 Este 0 -- -- 65
2019-08-04 02:00:00 20.5 3 Este 8 Este 0 -- -- 62
2019-08-04 01:00:00 22.2 4 Nordeste 7 Nordeste 0 -- -- 57
2019-08-04 00:00:00 23.6 3 Nordeste 10 Este 0 -- -- 52
2019-08-03 23:00:00 26.2 3 Nordeste 14 Sudeste 0 -- -- 43
2019-08-03 22:00:00 28.7 0 Calma 15 Nordeste 0 -- -- 36
2019-08-03 21:00:00 31.1 7 Este 21 Nordeste 0 -- -- 32
2019-08-03 20:00:00 33 8 Este 22 Nordeste 0 -- -- 29
2019-08-03 19:00:00 33.7 8 Nordeste 24 Nordeste 0 -- -- 26
2019-08-03 18:00:00 34 10 Nordeste 28 Nordeste 0 -- -- 26
2019-08-03 17:00:00 33.5 10 Nordeste 31 Nordeste 0 -- -- 27
2019-08-03 16:00:00 32.7 14 Nordeste 36 Nordeste 0 -- -- 28
2019-08-03 15:00:00 33.2 9 Nordeste 29 Norte 0 -- -- 27
2019-08-03 14:00:00 33.3 8 Nordeste 20 Nordeste 0 -- -- 28
2019-08-03 13:00:00 32.1 6 Noroeste 13 Sudeste 0 -- -- 31
2019-08-03 12:00:00 30.4 5 Nordeste 13 Norte 0 -- -- 35
2019-08-03 11:00:00 27.8 3 Sudeste 15 Sur 0 -- -- 39
2019-08-03 10:00:00 23.2 4 Oeste 7 Noroeste 0 -- -- 48
2019-08-03 09:00:00 18.3 2 Este 5 Este 0 -- -- 56
2019-08-03 08:00:00 15.3 0 Calma 8 Este 0 -- -- 63
2019-08-03 07:00:00 15 2 Este 7 Este 0 -- -- 63
2019-08-03 06:00:00 15.7 0 Calma 8 Este 0 -- -- 61
2019-08-03 05:00:00 16.4 0 Calma 7 Nordeste 0 -- -- 58
2019-08-03 04:00:00 17.5 3 Este 8 Este 0 -- -- 55
2019-08-03 03:00:00 18.4 0 Calma 8 Nordeste 0 -- -- 52
2019-08-03 02:00:00 19.7 3 Este 8 Nordeste 0 -- -- 48
2019-08-03 01:00:00 21.7 0 Calma 6 Nordeste 0 -- -- 44
2019-08-03 00:00:00 23.2 0 Calma 8 Nordeste 0 -- -- 43
2019-08-02 23:00:00 24.3 0 Calma 4 Nordeste 0 -- -- 39
2019-08-02 22:00:00 26 3 Este 19 Norte 0 -- -- 34
2019-08-02 21:00:00 27.9 11 Nordeste 25 Nordeste 0 -- -- 31
2019-08-02 20:00:00 29.8 12 Nordeste 26 Este 0 -- -- 30
2019-08-02 19:00:00 30.9 10 Nordeste 24 Nordeste 0 -- -- 30
2019-08-02 18:00:00 31.4 10 Nordeste 27 Este 0 -- -- 29
2019-08-02 17:00:00 31.4 12 Nordeste 28 Nordeste 0 -- -- 30
2019-08-02 16:00:00 31.3 12 Nordeste 32 Nordeste 0 -- -- 31
2019-08-02 15:00:00 30.9 8 Nordeste 21 Nordeste 0 -- -- 33
2019-08-02 14:00:00 29.6 8 Nordeste 18 Norte 0 -- -- 37
2019-08-02 13:00:00 27.9 5 Este 15 Nordeste 0 -- -- 42
2019-08-02 12:00:00 26.4 3 Este 13 Norte 0 -- -- 49
2019-08-02 11:00:00 23.8 3 Este 12 Nordeste 0 -- -- 59
2019-08-02 10:00:00 21.3 2 Nordeste 9 Nordeste 0 -- -- 69
2019-08-02 09:00:00 17.9 0 Calma 5 Este 0 -- -- 81
2019-08-02 08:00:00 15.8 2 Este 6 Este 0 -- -- 86
2019-08-02 07:00:00 16 0 Calma 4 Norte 0 -- -- 86
2019-08-02 06:00:00 16.6 0 Calma 5 Norte 0 -- -- 85
2019-08-02 05:00:00 17.1 0 Calma 6 Nordeste 0 -- -- 84
2019-08-02 04:00:00 17.6 3 Este 9 Este 0 -- -- 82
2019-08-02 03:00:00 18.2 4 Este 13 Norte 0 -- -- 81
2019-08-02 02:00:00 19 5 Nordeste 17 Norte 0 -- -- 78
2019-08-02 01:00:00 20.2 5 Nordeste 17 Este 0 -- -- 73
2019-08-02 00:00:00 22.2 4 Este 18 Este 0 -- -- 67
2019-08-01 23:00:00 24.5 3 Nordeste 10 Noroeste 0 -- -- 51
2019-08-01 22:00:00 25.6 5 Nordeste 21 Nordeste 0 -- -- 46
2019-08-01 21:00:00 28.5 8 Nordeste 21 Nordeste 0 -- -- 38
2019-08-01 20:00:00 29.6 8 Nordeste 23 Este 0 -- -- 37
2019-08-01 19:00:00 31 10 Nordeste 27 Nordeste 0 -- -- 36
2019-08-01 18:00:00 31.6 8 Nordeste 23 Este 0 -- -- 35
2019-08-01 17:00:00 31.5 12 Nordeste 26 Este 0 -- -- 36
2019-08-01 16:00:00 29.9 8 Nordeste 26 Norte 0 -- -- 37
2019-08-01 15:00:00 29.9 12 Nordeste 27 Nordeste 0 -- -- 41
2019-08-01 14:00:00 28.8 11 Nordeste 25 Nordeste 0 -- -- 44
2019-08-01 13:00:00 27.5 9 Nordeste 22 Nordeste 0 -- -- 47
2019-08-01 12:00:00 27.1 5 Noroeste 13 Norte 0 -- -- 38
2019-08-01 11:00:00 25.2 3 Norte 11 Oeste 0 -- -- 41
2019-08-01 10:00:00 22.4 2 Norte 10 Norte 0 -- -- 54
2019-08-01 09:00:00 20.2 3 Sur 9 Nordeste 0 -- -- 64
2019-08-01 08:00:00 19.1 3 Oeste 8 Noroeste 0 -- -- 71
2019-08-01 07:00:00 18.8 0 Calma 12 Sur 0 -- -- 74
2019-08-01 06:00:00 19 4 Sudeste 12 Sudeste 0 -- -- 74
2019-08-01 05:00:00 18.4 2 Nordeste 8 Nordeste 0 -- -- 78
2019-08-01 04:00:00 19.2 0 Calma 8 Nordeste 0 -- -- 74
2019-08-01 03:00:00 20 0 Calma 7 Norte 0 -- -- 71
2019-08-01 02:00:00 20.5 3 Nordeste 6 Nordeste 0 -- -- 69
2019-08-01 01:00:00 21.8 3 Este 10 Este 0 -- -- 66
2019-08-01 00:00:00 22.6 3 Nordeste 13 Este 0 -- -- 62
2019-07-31 23:00:00 24.1 4 Nordeste 14 Nordeste 0 -- -- 58
2019-07-31 22:00:00 25.2 4 Este 26 Este 0 -- -- 54
2019-07-31 21:00:00 26.5 12 Nordeste 31 Este 0 -- -- 47
2019-07-31 20:00:00 28 11 Nordeste 37 Este 0 -- -- 39
2019-07-31 19:00:00 28.3 17 Nordeste 34 Norte 0 -- -- 34
2019-07-31 18:00:00 28.9 15 Nordeste 32 Nordeste 0 -- -- 31
2019-07-31 17:00:00 28.9 13 Nordeste 32 Norte 0 -- -- 31
2019-07-31 16:00:00 28.4 14 Nordeste 35 Nordeste 0 -- -- 32
2019-07-31 15:00:00 28.4 14 Nordeste 32 Nordeste 0 -- -- 33
2019-07-31 14:00:00 27 11 Nordeste 28 Nordeste 0 -- -- 35
2019-07-31 13:00:00 25.3 9 Nordeste 22 Norte 0 -- -- 37
2019-07-31 12:00:00 22.7 9 Norte 22 Nordeste 0 -- -- 40
2019-07-31 11:00:00 20.4 8 Nordeste 20 Norte 0 -- -- 42
2019-07-31 10:00:00 17.2 7 Nordeste 15 Nordeste 0 -- -- 49
2019-07-31 09:00:00 15 3 Este 9 Nordeste 0 -- -- 57
2019-07-31 08:00:00 13.5 0 Calma 5 Nordeste 0 -- -- 65
2019-07-31 07:00:00 13.2 3 Nordeste 10 Nordeste 0 -- -- 66
2019-07-31 06:00:00 13.4 5 Norte 9 Norte 0 -- -- 63
2019-07-31 05:00:00 14 3 Nordeste 6 Nordeste 0 -- -- 62
2019-07-31 04:00:00 14.9 2 Este 9 Este 0 -- -- 59
2019-07-31 03:00:00 15.1 4 Nordeste 12 Este 0 -- -- 57
2019-07-31 02:00:00 15 4 Nordeste 13 Nordeste 0 -- -- 56
2019-07-31 01:00:00 15.2 4 Nordeste 11 Norte 0 -- -- 59
2019-07-31 00:00:00 16 4 Norte 15 Nordeste 0 -- -- 55
2019-07-30 23:00:00 17.1 6 Norte 19 Nordeste 0 -- -- 52
2019-07-30 22:00:00 18.5 10 Nordeste 24 Nordeste 0 -- -- 48
2019-07-30 21:00:00 20.4 13 Nordeste 31 Nordeste 0 -- -- 44
2019-07-30 20:00:00 22.7 13 Nordeste 33 Este 0 -- -- 39
2019-07-30 19:00:00 24.4 13 Nordeste 29 Nordeste 0 -- -- 34
2019-07-30 18:00:00 25 14 Nordeste 33 Nordeste 0 -- -- 35
2019-07-30 17:00:00 25.3 14 Nordeste 32 Nordeste 0 -- -- 35
2019-07-30 16:00:00 25.6 12 Nordeste 29 Nordeste 0 -- -- 37
2019-07-30 15:00:00 25.3 12 Nordeste 31 Nordeste 0 -- -- 38
2019-07-30 14:00:00 24.1 8 Nordeste 24 Nordeste 0 -- -- 41
2019-07-30 13:00:00 23.5 5 Nordeste 17 Norte 0 -- -- 42
2019-07-30 12:00:00 21.4 6 Sudoeste 22 Norte 0 -- -- 51
2019-07-30 11:00:00 20.2 6 Nordeste 21 Nordeste 0 -- -- 54
2019-07-30 10:00:00 18.3 6 Norte 22 Este 0 -- -- 61
2019-07-30 09:00:00 15.6 4 Sudeste 13 Sudoeste 0 -- -- 73
2019-07-30 08:00:00 14 0 Calma 4 Sudeste 0 -- -- 81
2019-07-30 07:00:00 13.7 0 Calma 5 Nordeste 0 -- -- 82
2019-07-30 06:00:00 14 0 Calma 4 Nordeste 0 -- -- 81
2019-07-30 05:00:00 14.7 0 Calma 7 Este 0 -- -- 77
2019-07-30 04:00:00 15.3 4 Este 14 Este 0 -- -- 75
2019-07-30 03:00:00 15.9 6 Nordeste 16 Nordeste 0 -- -- 74
2019-07-30 02:00:00 17 9 Nordeste 19 Nordeste 0 -- -- 71
2019-07-30 01:00:00 18.8 6 Nordeste 25 Nordeste 0 -- -- 67
2019-07-30 00:00:00 21.2 13 Nordeste 23 Nordeste 0 -- -- 59
2019-07-29 23:00:00 26.3 7 Nordeste 21 Oeste 0 -- -- 31
2019-07-29 22:00:00 27.4 0 Calma 17 Sudoeste 0 -- -- 28
2019-07-29 21:00:00 30 6 Oeste 19 Sudoeste 0 -- -- 24
2019-07-29 20:00:00 31.5 12 Oeste 25 Oeste 0 -- -- 21
2019-07-29 19:00:00 33.1 10 Oeste 24 Sudoeste 0 -- -- 18
2019-07-29 18:00:00 33.2 12 Oeste 33 Sudoeste 0 -- -- 19
2019-07-29 17:00:00 32.5 14 Oeste 35 Sudoeste 0 -- -- 20
2019-07-29 16:00:00 32.3 9 Sudoeste 30 Sudoeste 0 -- -- 22
2019-07-29 15:00:00 31.4 10 Oeste 27 Oeste 0 -- -- 25
2019-07-29 14:00:00 30.5 13 Sudoeste 28 Sudoeste 0 -- -- 26
2019-07-29 13:00:00 29.3 2 Sudeste 14 Sudeste 0 -- -- 27
2019-07-29 12:00:00 27.3 2 Noroeste 9 Oeste 0 -- -- 29
2019-07-29 11:00:00 24.3 3 Noroeste 8 Noroeste 0 -- -- 40
2019-07-29 10:00:00 20.7 5 Noroeste 8 Oeste 0 -- -- 53
2019-07-29 09:00:00 16.5 4 Oeste 6 Oeste 0 -- -- 66
2019-07-29 08:00:00 13.6 0 Calma 4 Nordeste 0 -- -- 76
2019-07-29 07:00:00 13 0 Calma 4 Sudeste 0 -- -- 77
2019-07-29 06:00:00 12.9 0 Calma 10 Nordeste 0 -- -- 76
2019-07-29 05:00:00 13.1 2 Nordeste 6 Norte 0 -- -- 74
2019-07-29 04:00:00 13.8 3 Nordeste 7 Nordeste 0 -- -- 72
2019-07-29 03:00:00 15 0 Calma 4 Nordeste 0 -- -- 68
2019-07-29 02:00:00 16.5 0 Calma 5 Oeste 0 -- -- 61
2019-07-29 01:00:00 17.8 0 Calma 5 Oeste 0 -- -- 57
2019-07-29 00:00:00 18.4 0 Calma 6 Este 0 -- -- 55
2019-07-28 23:00:00 19.5 2 Nordeste 13 Norte 0 -- -- 51
2019-07-28 22:00:00 20.8 6 Nordeste 24 Nordeste 0 -- -- 48
2019-07-28 21:00:00 22.6 10 Nordeste 26 Nordeste 0 -- -- 43
2019-07-28 20:00:00 25.2 12 Nordeste 23 Nordeste 0 -- -- 37
2019-07-28 19:00:00 27.8 5 Oeste 20 Oeste 0 -- -- 25
2019-07-28 18:00:00 27.5 4 Nordeste 21 Oeste 0 -- -- 25
2019-07-28 17:00:00 26.8 6 Oeste 22 Oeste 0 -- -- 26
2019-07-28 16:00:00 25.5 10 Oeste 26 Oeste 0 -- -- 29
2019-07-28 15:00:00 25.2 6 Norte 17 Noroeste 0 -- -- 34
2019-07-28 14:00:00 23 5 Sudoeste 19 Oeste 0 -- -- 40
2019-07-28 13:00:00 20.9 9 Oeste 18 Oeste 0 -- -- 46
2019-07-28 12:00:00 19.4 4 Norte 18 Oeste 0 -- -- 50
2019-07-28 11:00:00 17.9 6 Sudoeste 20 Noroeste 0 -- -- 56
2019-07-28 10:00:00 15.8 5 Oeste 9 Sudoeste 0 -- -- 65
2019-07-28 09:00:00 13.5 2 Oeste 10 Nordeste 0 -- -- 78
2019-07-28 08:00:00 11.4 0 Calma 5 Sudeste 0 -- -- 86
2019-07-28 07:00:00 10.3 3 Nordeste 9 Nordeste 0 -- -- 85
2019-07-28 06:00:00 11.2 0 Calma 5 Este 0 -- -- 83
2019-07-28 05:00:00 11.8 2 Este 9 Nordeste 0 -- -- 82
2019-07-28 04:00:00 11.9 2 Nordeste 9 Nordeste 0 -- -- 81
2019-07-28 03:00:00 12.9 2 Este 9 Este 0 -- -- 78
2019-07-28 02:00:00 14.2 3 Nordeste 6 Nordeste 0 -- -- 71
2019-07-28 01:00:00 15 6 Nordeste 17 Norte 0 -- -- 68
2019-07-28 00:00:00 16.1 6 Nordeste 18 Norte 0 -- -- 64
2019-07-27 23:00:00 16.7 10 Norte 21 Nordeste 0 -- -- 64
2019-07-26 12:00:00 25.9 10 Oeste 22 Sudoeste 0 -- -- 47
2019-07-26 11:00:00 23.8 6 Nordeste 17 Este 0 -- -- 59
2019-07-26 10:00:00 21.5 8 Nordeste 19 Nordeste 0 -- -- 72
2019-07-26 09:00:00 20.5 4 Sudeste 23 Nordeste 0 -- -- 75
2019-07-26 08:00:00 20.1 6 Nordeste 19 Nordeste 0 -- -- 77
2019-07-26 07:00:00 20.7 7 Nordeste 19 Nordeste 0 -- -- 71
2019-07-26 06:00:00 22.7 3 Noroeste 11 Sudoeste 0 -- -- 48
2019-07-26 05:00:00 23.3 4 Sudoeste 21 Sur 0 -- -- 47
2019-07-26 04:00:00 24.3 10 Sudeste 22 Sudeste 0 -- -- 47
2019-07-26 03:00:00 25.4 6 Sudeste 20 Sudeste 0 -- -- 41
2019-07-26 02:00:00 26.2 5 Sudeste 21 Sudeste 0 -- -- 41
2019-07-26 01:00:00 26 5 Oeste 17 Oeste 0 -- -- 44
2019-07-26 00:00:00 26.4 5 Sudeste 19 Sudeste 0 -- -- 43
2019-07-25 23:00:00 26.6 6 Sudeste 21 Sudeste 0 -- -- 42
2019-07-25 22:00:00 27.4 4 Nordeste 15 Nordeste 0 -- -- 37
2019-07-25 21:00:00 28.9 3 Norte 18 Este 0 -- -- 33
2019-07-25 20:00:00 30.1 11 Este 34 Sudeste 0 -- -- 29
2019-07-25 19:00:00 31.8 10 Este 33 Este 0 -- -- 28
2019-07-25 18:00:00 32.9 13 Nordeste 28 Este 0 -- -- 26
2019-07-25 17:00:00 34 5 Este 30 Sudeste 0 -- -- 20
2019-07-25 16:00:00 33.4 4 Norte 32 Sudeste 0 -- -- 21
2019-07-25 15:00:00 32.5 8 Oeste 31 Oeste 0 -- -- 25
2019-07-25 14:00:00 35.3 6 Oeste 15 Sudoeste 0 -- -- 23
2019-07-25 13:00:00 34.3 4 Norte 15 Sudeste 0 -- -- 23
2019-07-25 12:00:00 32.8 4 Este 10 Sudeste 0 -- -- 24
2019-07-25 11:00:00 31 4 Este 10 Este 0 -- -- 25
2019-07-25 10:00:00 28.2 4 Este 13 Nordeste 0 -- -- 29
2019-07-25 09:00:00 25.2 0 Calma 9 Nordeste 0 -- -- 34
2019-07-25 08:00:00 23.5 4 Sudeste 14 Sudeste 0 -- -- 37
2019-07-25 07:00:00 22.8 3 Norte 15 Sur 0 -- -- 38
2019-07-25 06:00:00 23.4 6 Sudoeste 21 Sudeste 0 -- -- 38
2019-07-25 05:00:00 23.1 2 Este 11 Sudeste 0 -- -- 38
2019-07-25 04:00:00 23.7 4 Oeste 10 Sudoeste 0 -- -- 38
2019-07-25 03:00:00 24.3 3 Oeste 10 Norte 0 -- -- 37
2019-07-25 02:00:00 25.1 0 Calma 9 Oeste 0 -- -- 36
2019-07-25 01:00:00 26.5 3 Oeste 10 Oeste 0 -- -- 34
2019-07-25 00:00:00 28.2 0 Calma 24 Sur 0 -- -- 31
2019-07-24 23:00:00 29.9 6 Norte 17 Sudeste 0 -- -- 28
2019-07-24 22:00:00 30.7 3 Oeste 14 Nordeste 0 -- -- 25
2019-07-24 21:00:00 32 4 Este 17 Nordeste 0 -- -- 22
2019-07-24 20:00:00 32.7 8 Nordeste 21 Nordeste 0 -- -- 23
2019-07-24 19:00:00 33.4 11 Nordeste 27 Nordeste 0 -- -- 22
2019-07-24 18:00:00 36.8 4 Oeste 66 Sudoeste 0 -- -- 15
2019-07-24 17:00:00 33.8 25 Oeste 66 Sudoeste 0 -- -- 16
2019-07-24 16:00:00 36.3 10 Sudeste 30 Sudeste 0 -- -- 17
2019-07-24 15:00:00 35.9 9 Este 26 Este 0 -- -- 17
2019-07-24 14:00:00 34.4 7 Este 22 Sudeste 0 -- -- 19
2019-07-24 13:00:00 33 6 Sudeste 17 Sur 0 -- -- 22
2019-07-24 12:00:00 31.4 4 Oeste 10 Noroeste 0 -- -- 28
2019-07-24 11:00:00 27.6 0 Calma 12 Norte 0 -- -- 35
2019-07-24 10:00:00 25.3 4 Nordeste 10 Norte 0 -- -- 39
2019-07-24 09:00:00 23.3 3 Este 14 Sudeste 0 -- -- 42
2019-07-24 08:00:00 20.8 2 Este 12 Nordeste 0 -- -- 48
2019-07-24 07:00:00 18.2 2 Norte 8 Nordeste 0 -- -- 55
2019-07-24 06:00:00 19.2 3 Este 11 Este 0 -- -- 52
2019-07-24 05:00:00 20.5 5 Nordeste 10 Nordeste 0 -- -- 48
2019-07-24 04:00:00 21.4 5 Nordeste 11 Nordeste 0 -- -- 45
2019-07-24 03:00:00 22.2 5 Este 12 Sudoeste 0 -- -- 42
2019-07-24 02:00:00 22.6 4 Nordeste 9 Nordeste 0 -- -- 41
2019-07-24 01:00:00 25.9 3 Nordeste 9 Nordeste 0 -- -- 33
2019-07-24 00:00:00 27.6 3 Nordeste 18 Oeste 0 -- -- 29
2019-07-23 23:00:00 27.9 3 Noroeste 12 Sudoeste 0 -- -- 28
2019-07-23 22:00:00 27.6 0 Calma 12 Nordeste 0 -- -- 32
2019-07-23 21:00:00 29.4 6 Nordeste 23 Nordeste 0 -- -- 30
2019-07-23 20:00:00 31.7 8 Nordeste 24 Nordeste 0 -- -- 26
2019-07-23 19:00:00 31.3 8 Este 32 Nordeste 0 -- -- 26
2019-07-23 18:00:00 34.1 19 Noroeste 59 Sudoeste 0 -- -- 18
2019-07-23 17:00:00 36.7 6 Este 24 Sudeste 0 -- -- 16
2019-07-23 16:00:00 36.6 7 Este 23 Sudeste 0 -- -- 16
2019-07-23 15:00:00 36.3 9 Sudeste 25 Sudeste 0 -- -- 16
2019-07-23 14:00:00 35.4 6 Este 14 Sudeste 0 -- -- 17
2019-07-23 13:00:00 33.8 4 Este 15 Este 0 -- -- 20
2019-07-23 12:00:00 32 3 Noroeste 14 Sudeste 0 -- -- 22
2019-07-23 11:00:00 29.9 5 Sudeste 13 Sur 0 -- -- 24
2019-07-23 10:00:00 26.7 2 Noroeste 8 Oeste 0 -- -- 28
2019-07-23 09:00:00 20.7 0 Calma 9 Sudeste 0 -- -- 41
2019-07-23 08:00:00 18.9 0 Calma 7 Norte 0 -- -- 43
2019-07-23 07:00:00 19.2 2 Este 8 Este 0 -- -- 42
2019-07-23 06:00:00 21 4 Nordeste 10 Nordeste 0 -- -- 38
2019-07-23 05:00:00 22.8 0 Calma 12 Oeste 0 -- -- 33
2019-07-23 04:00:00 23.5 5 Oeste 17 Oeste 0 -- -- 32
2019-07-23 03:00:00 23.9 6 Oeste 17 Oeste 0 -- -- 34
2019-07-23 02:00:00 25.4 6 Oeste 21 Sur 0 -- -- 32
2019-07-23 01:00:00 26.1 4 Noroeste 22 Sur 0 -- -- 32
2019-07-23 00:00:00 26.9 6 Sudeste 20 Sudeste 0 -- -- 31
2019-07-22 23:00:00 28.3 4 Noroeste 21 Sur 0 -- -- 28
2019-07-22 22:00:00 30.2 4 Este 27 Sudeste 0 -- -- 25
2019-07-22 21:00:00 32.3 6 Sudeste 26 Sudeste 0 -- -- 20
2019-07-22 20:00:00 34.6 6 Este 28 Sudeste 0 -- -- 17
2019-07-22 19:00:00 35.9 6 Norte 25 Sudeste 0 -- -- 15
2019-07-22 18:00:00 36.8 6 Este 31 Sur 0 -- -- 15
2019-07-22 17:00:00 37.1 8 Sudeste 21 Sudeste 0 -- -- 16
2019-07-22 16:00:00 36.5 8 Sur 24 Sur 0 -- -- 15
2019-07-22 15:00:00 35.2 5 Nordeste 20 Sur 0 -- -- 14
2019-07-22 14:00:00 34.6 7 Este 21 Sudeste -- -- -- 14
2019-07-22 13:00:00 33.9 8 Este 20 Este 0 -- -- 16
2019-07-22 12:00:00 32.3 4 Oeste 18 Sur 0 -- -- 20
2019-07-22 11:00:00 29.4 4 Oeste 10 Sur 0 -- -- 24
2019-07-22 10:00:00 26.6 4 Este 11 Sudeste 0 -- -- 27
2019-07-22 09:00:00 23.3 3 Este 10 Nordeste 0 -- -- 38
2019-07-22 08:00:00 20.2 3 Este 8 Nordeste 0 -- -- 50
2019-07-22 07:00:00 21.4 3 Nordeste 10 Sudeste 0 -- -- 44
2019-07-22 06:00:00 22 3 Sudoeste 16 Sudoeste 0 -- -- 42
2019-07-22 05:00:00 22.9 6 Oeste 17 Sudeste 0 -- -- 40
2019-07-22 04:00:00 23.8 5 Sur 17 Sudoeste 0 -- -- 37
2019-07-22 03:00:00 24.2 4 Sudoeste 14 Sudeste 0 -- -- 40
2019-07-22 02:00:00 24.9 2 Sudeste 8 Este 0 -- -- 41
2019-07-22 01:00:00 26.6 3 Noroeste 16 Oeste 0 -- -- 37
2019-07-22 00:00:00 27.3 5 Oeste 17 Sudeste 0 -- -- 35
2019-07-21 23:00:00 28.4 5 Sudeste 20 Sudeste 0 -- -- 34
2019-07-21 22:00:00 29.9 2 Noroeste 18 Sudeste 0 -- -- 31
2019-07-21 21:00:00 31.6 4 Este 14 Sudeste 0 -- -- 31
2019-07-21 20:00:00 32.4 5 Este 14 Este 0 -- -- 29
2019-07-21 19:00:00 33.1 7 Oeste 25 Noroeste 0 -- -- 23
2019-07-21 18:00:00 35 5 Oeste 27 Este 0 -- -- 24
2019-07-21 17:00:00 33.7 10 Este 33 Nordeste 0 -- -- 30
2019-07-21 16:00:00 34.6 14 Nordeste 37 Norte 0 -- -- 30
2019-07-21 15:00:00 34.5 13 Nordeste 28 Nordeste 0 -- -- 29
2019-07-21 14:00:00 34 5 Nordeste 21 Sudeste 0 -- -- 24
2019-07-21 13:00:00 32.8 6 Este 24 Este 0 -- -- 26
2019-07-21 12:00:00 30.2 6 Este 16 Nordeste 0 -- -- 32
2019-07-21 11:00:00 26.7 4 Nordeste 15 Norte 0 -- -- 48
2019-07-21 10:00:00 23.5 9 Nordeste 18 Nordeste 0 -- -- 57
2019-07-21 09:00:00 21.3 7 Nordeste 15 Este 0 -- -- 68
2019-07-21 08:00:00 19.2 9 Nordeste 15 Nordeste 0 -- -- 77
2019-07-21 07:00:00 18.8 9 Nordeste 21 Nordeste 0 -- -- 78
2019-07-21 06:00:00 19.6 7 Nordeste 15 Nordeste 0 -- -- 74
2019-07-21 05:00:00 20.3 5 Nordeste 17 Este 0 -- -- 70
2019-07-21 04:00:00 21.5 6 Este 17 Este 0 -- -- 62
2019-07-21 03:00:00 22.6 6 Este 15 Nordeste 0 -- -- 56
2019-07-21 02:00:00 24.7 7 Nordeste 22 Este 0 -- -- 53
2019-07-21 01:00:00 25.8 5 Nordeste 24 Sudeste 0 -- -- 43
2019-07-21 00:00:00 27.1 6 Oeste 31 Sudeste 0 -- -- 40